Nearby METAR Reports

 

KDVT - Phoenix/Deer Vly, Arizona, USA
Distance from station: SSE 14mi, 22km
Updated: 10/18/2018 12:53am
Clear
Clear
 Wind from NE
Wind: NE 7 mph , 11 km/h
Temperature: 63°F , 17°C
Dew Point: 43°F , 6°C
Humidity: 49%
Barometer: 30.08 inHg , 1018.6 hPa
Clouds: Clear
Visibility: 10 miles , 16 km
2018/10/18 07:53 KDVT 180753Z 05006KT 10SM CLR 17/06 A3008 RMK AO2 SLP170 T01720061
KSDL - Scottsdale, Arizona, USA
Distance from station: SE 22mi, 35km
Updated: 10/18/2018 12:53am
Clear
Clear
 Wind from calm
Wind: Calm
Temperature: 63°F , 17°C
Dew Point: 43°F , 6°C
Humidity: 49%
Barometer: 30.08 inHg , 1018.6 hPa
Clouds: Clear
Visibility: 10 miles , 16 km
2018/10/18 07:53 KSDL 180753Z AUTO 00000KT 10SM CLR 17/06 A3008 RMK AO2 SLP171 T01670061
 
KGEU - Glendale, Arizona, USA
Distance from station: SSW 25mi, 41km
Updated: 10/17/2018 7:59pm
NOT Current
Clear
Clear
 Wind from NE
Wind: NE 10 mph , 17 km/h
Temperature: 72°F , 22°C
Dew Point: 43°F , 6°C
Humidity: 36%
Barometer: 30.06 inHg , 1017.9 hPa
Clouds: Clear
Visibility: 10 miles , 16 km
2018/10/18 02:59 KGEU 180259Z 04009KT 10SM SKC 22/06 A3006 RMK LAST
KLUF - Luke Afb/Glendal, Arizona, USA
Distance from station: SSW 28mi, 45km
Updated: 10/17/2018 11:58pm
Clear
Clear
 Wind from NNE
Wind: NNE 6 mph , 9 km/h
Temperature: 61°F , 16°C
Dew Point: 46°F , 8°C
Humidity: 59%
Barometer: 30.06 inHg , 1017.9 hPa
Clouds: Clear
Visibility: 10 miles , 16 km
2018/10/18 06:58 KLUF 180658Z AUTO 03005KT 10SM CLR 16/08 A3006 RMK AO2 SLP172 T01630083 402530126 $
 
KPHX - Phoenix/Sky Hrbr, Arizona, USA
Distance from station: SSE 31mi, 51km
Updated: 10/18/2018 12:51am
Clear
Clear
 Wind from ENE
Wind: ENE 9 mph , 15 km/h
Temperature: 64°F , 18°C
Dew Point: 45°F , 7°C
Humidity: 49%
Barometer: 30.05 inHg , 1017.6 hPa
Clouds: Clear
Visibility: 10 miles , 16 km
2018/10/18 07:51 KPHX 180751Z 07008KT 10SM CLR 18/07 A3005 RMK AO2 SLP163 T01830072
KGYR - Goodyear Municip, Arizona, USA
Distance from station: SSW 34mi, 55km
Updated: 10/17/2018 8:47pm
NOT Current
Clear
Clear
 Wind from NE
Wind: NE 9 mph , 15 km/h
Temperature: 70°F , 21°C
Dew Point: 45°F , 7°C
Humidity: 40%
Barometer: 30.05 inHg , 1017.6 hPa
Clouds: Clear
Visibility: 10 miles , 16 km
2018/10/18 03:47 KGYR 180347Z 04008KT 10SM SKC 21/07 A3005 RMK LAST
 
KFFZ - Mesa/Falcon Fld, Arizona, USA
Distance from station: SE 37mi, 60km
Updated: 10/18/2018 12:54am
Clear
Clear
 Wind from NE
Wind: NE 7 mph , 11 km/h
Temperature: 64°F , 18°C
Dew Point: 43°F , 6°C
Humidity: 46%
Barometer: 30.07 inHg , 1018.3 hPa
Clouds: Clear
Visibility: 10 miles , 16 km
2018/10/18 07:54 KFFZ 180754Z AUTO 04006KT 10SM CLR 18/06 A3007 RMK AO2 SLP165 T01780061
KBXK - Buckeye, Arizona, USA
Distance from station: SW 45mi, 72km
Updated: 10/18/2018 12:35am
Clear
Clear
 Wind from NE
Wind: NE 10 mph , 17 km/h
Temperature: 66°F , 19°C
Dew Point: 43°F , 6°C
Humidity: 43%
Barometer: 30.06 inHg , 1017.9 hPa
Clouds: Clear
Visibility: 10 miles , 16 km
2018/10/18 07:35 KBXK 180735Z AUTO 05009KT 10SM CLR 19/06 A3006 RMK AO1
 
KIWA - Chandler/Mesa, Arizona, USA
Distance from station: SE 49mi, 78km
Updated: 10/18/2018 12:35am
Clear
Clear
 Wind from ENE
Wind: ENE 5 mph , 7 km/h
Temperature: 59°F , 15°C
Dew Point: 45°F , 7°C
Humidity: 59%
Barometer: 30.08 inHg , 1018.6 hPa
Clouds: Clear
Visibility: 10 miles , 16 km
2018/10/18 07:35 KIWA 180735Z AUTO 07004KT 10SM CLR 15/07 A3008 RMK AO2 T01540068
KPAN - Payson, Arizona, USA
Distance from station: ENE 53mi, 85km
Updated: 10/18/2018 12:55am
Clear
Clear
 Wind from E
Wind: E 6 mph , 9 km/h
Temperature: 46°F , 8°C
Wind Chill: 43°F , 6°C
Dew Point: 37°F , 3°C
Humidity: 71%
Barometer: 30.23 inHg , 1023.7 hPa
Clouds: Clear
Visibility: 10 miles , 16 km
2018/10/18 07:55 KPAN 180755Z AUTO 10005KT 10SM CLR 08/03 A3023 RMK AO2
 
KPRC - Prescott, Arizona, USA
Distance from station: NNW 56mi, 90km
Updated: 10/18/2018 12:53am
Clear
Clear
 Wind from calm
Wind: Calm
Temperature: 39°F , 4°C
Dew Point: 36°F , 2°C
Humidity: 87%
Barometer: 30.22 inHg , 1023.4 hPa
Clouds: Clear
Visibility: 10 miles , 16 km
2018/10/18 07:53 KPRC 180753Z AUTO 00000KT 10SM CLR 04/02 A3022 RMK AO2 SLP197 T00390022
KCGZ - Casa Granda, Arizona, USA
Distance from station: SSE 67mi, 109km
Updated: 10/18/2018 12:56am
Clear
Clear
 Wind from ENE
Wind: ENE 17 mph , 28 km/h, Gust: 25 mph , 41 km/h
Temperature: 63°F , 17°C
Dew Point: 45°F , 7°C
Humidity: 52%
Barometer: 30.06 inHg , 1017.9 hPa
Clouds: Clear
Visibility: 10 miles , 16 km
2018/10/18 07:56 KCGZ 180756Z AUTO 07015G22KT 10SM CLR 17/07 A3006 RMK AO2 SLP171 T01720072 $
 
KSEZ - Sedona, Arizona, USA
Distance from station: NNE 70mi, 113km
Updated: 10/18/2018 12:55am
Clear
Clear
 Wind from NE
Wind: NE 9 mph , 15 km/h
Temperature: 50°F , 10°C
Wind Chill: 46°F , 8°C
Dew Point: 37°F , 3°C
Humidity: 62%
Barometer: 30.23 inHg , 1023.7 hPa
Clouds: Clear
Visibility: 10 miles , 16 km
2018/10/18 07:55 KSEZ 180755Z AUTO 04008KT 10SM CLR 10/03 A3023 RMK AO2
KGXF - Gila Bend (aaf), Arizona, USA
Distance from station: SSW 77mi, 124km
Updated: 10/17/2018 11:58pm
Clear
Clear
 Wind from calm
Wind: Calm
Temperature: 66°F , 19°C
Dew Point: 45°F , 7°C
Humidity: 46%
Barometer: 30.02 inHg , 1016.6 hPa
Clouds: Clear
Visibility: 10 miles , 16 km
2018/10/18 06:58 KGXF 180658Z AUTO 00000KT 10SM CLR 19/07 A3002 RMK AO2 SLP158 T01890069 402540120
 
KP08 - Coolidge Muni, Arizona, USA
Distance from station: SSE 77mi, 124km
Updated: 10/18/2018 12:35am
Clear
Clear
 Wind from E
Wind: E 15 mph , 24 km/h, Gust: 21 mph , 33 km/h
Temperature: 63°F , 17°C
Dew Point: 43°F , 6°C
Humidity: 49%
Barometer: 30.07 inHg , 1018.3 hPa
Clouds: Clear
Visibility: 10 miles , 16 km
2018/10/18 07:35 KP08 180735Z AUTO 09013G18KT 10SM CLR 17/06 A3007 RMK AO2
KFLG - Flagstaff, Arizona, USA
Distance from station: NNE 91mi, 146km
Updated: 10/18/2018 12:57am
Freezing fog, Overcast
Freezing fog, Overcast
 Wind from calm
Wind: Calm
Temperature: 28°F , -2°C
Dew Point: 27°F , -3°C
Humidity: 93%
Barometer: 30.28 inHg , 1025.4 hPa
Summary: Freezing Fog
Clouds: Overcast
Visibility: 1/2 mile , 0.8 km
Cloud details: Overcast 200 ft
2018/10/18 07:57 KFLG 180757Z AUTO 00000KT 1/2SM FZFG VV002 M02/M03 A3028 RMK AO2 SLP244 T10221028 $
 
KCMR - Williams Clark, Arizona, USA
Distance from station: N 98mi, 158km
Updated: 10/18/2018 12:55am
Clear
Clear
 Wind from SE
Wind: SE 7 mph , 11 km/h
Temperature: 34°F , 1°C
Wind Chill: 28°F , -2°C
Dew Point: 30°F , -1°C
Humidity: 87%
Barometer: 30.25 inHg , 1024.4 hPa
Clouds: Clear
Visibility: 10 miles , 16 km
2018/10/18 07:55 KCMR 180755Z AUTO 14006KT 10SM CLR 01/M01 A3025 RMK AO2